Vera, Texas
Current Conditions -  °F | °C
As of 4:36 AM on Thursday 27 Nov 2014 (Local Time) from KF05 Reporting Station
Clear Clear  
Wind Chill: 34°   Ceiling: Unl
Heat Index: 34°   Visibility: 10mi
Dew Point: 25°   Wind: 0mph
Humidity: 70%   Direction: NA
Pressure: 30.5"   Gusts: NA
Location:  33.6337°N, 99.8039°W
Report Text: KF05 271036Z AUTO 00000KT 10SM CLR 01/M04 A3050 RMK AO2
Loading
Personal Weather Stations






























Interactive Weather Map New forecast layout! Learn more

10-Day Weather Forecast

Advertisements
Track Severe Weather on mobile